WetterOnline ( https://www.wetteronline.de )

Wetter aktuell Místo

Aktuelles Wetter: Tusimice (326m)

6-stündlich | Neueste Meldungen
Ortszeit Temperatur Wetter
Fr, 14.06. 2:00 7.6° C -
Do, 13.06. 20:00 15.3° C leicht bewölkt
Do, 13.06. 14:00 16.8° C wolkig
Do, 13.06. 8:00 12.6° C wolkig
Do, 13.06. 2:00 10.3° C bedeckt
Mi, 12.06. 20:00 16.8° C bewölkt
Mi, 12.06. 14:00 18.1° C bewölkt
Mi, 12.06. 8:00 13.2° C leicht bewölkt
Ortszeit Temperatur Wetter
Fr, 14.06. 7:00 9.2° C wolkenlos
Fr, 14.06. 6:00 7.5° C bewölkt
Fr, 14.06. 5:00 7.0° C bewölkt
Fr, 14.06. 4:00 7.2° C bewölkt
Fr, 14.06. 3:00 7.3° C wolkig
Fr, 14.06. 2:00 7.6° C -
Ortszeit Relative Feuchte Sichtweite
Fr, 14.06. 2:00 95% 12 km
Do, 13.06. 20:00 63% 35 km
Do, 13.06. 14:00 63% 35 km
Do, 13.06. 8:00 76% 30 km
Do, 13.06. 2:00 92% 21 km
Mi, 12.06. 20:00 49% 35 km
Mi, 12.06. 14:00 44% 35 km
Mi, 12.06. 8:00 62% 35 km
Ortszeit Relative Feuchte Sichtweite
Fr, 14.06. 7:00 94% 17 km
Fr, 14.06. 6:00 95% 14 km
Fr, 14.06. 5:00 96% 11 km
Fr, 14.06. 4:00 95% 11 km
Fr, 14.06. 3:00 95% 12 km
Fr, 14.06. 2:00 95% 12 km
Ortszeit Niederschlagsmenge Niederschlagsart
Fr, 14.06. 2:00 0.0 l/m2 in 6 Std. -
Do, 13.06. 20:00 8 l/m2 in 12 Std. Schauer
Do, 13.06. 14:00 7 l/m2 in 6 Std. Schauer
Do, 13.06. 8:00 2 l/m2 in 12 Std. -
Do, 13.06. 2:00 2 l/m2 in 6 Std. Regenschauer
Mi, 12.06. 20:00 0.1 l/m2 in 12 Std. -
Mi, 12.06. 14:00 0.1 l/m2 in 6 Std. -
Mi, 12.06. 8:00 0.1 l/m2 in 12 Std. -
Ortszeit Niederschlagsmenge Niederschlagsart
Fr, 14.06. 7:00 0.0 l/m2 in 1 Std. -
Fr, 14.06. 6:00 0.0 l/m2 in 1 Std. -
Fr, 14.06. 5:00 0.0 l/m2 in 1 Std. -
Fr, 14.06. 4:00 0.0 l/m2 in 1 Std. -
Fr, 14.06. 3:00 0.0 l/m2 in 1 Std. -
Fr, 14.06. 2:00 0.0 l/m2 in 1 Std. -
Ortszeit Stärke Spitze Richtung
km/h Bft. km/h Grad Sektor
Fr, 14.06. 2:00 7 2 - 260° W
Do, 13.06. 20:00 7 2 - 140° SO
Do, 13.06. 14:00 11 2 - 190° S
Do, 13.06. 8:00 7 2 - 280° W
Do, 13.06. 2:00 11 2 - 270° W
Mi, 12.06. 20:00 7 2 - uml. uml.
Mi, 12.06. 14:00 14 3 - 340° N
Mi, 12.06. 8:00 4 1 - uml. uml.
Ortszeit Stärke Spitze Richtung
km/h Bft. km/h Grad Sektor
Fr, 14.06. 7:00 4 1 - uml. uml.
Fr, 14.06. 6:00 4 1 - 260° W
Fr, 14.06. 5:00 7 2 - 250° W
Fr, 14.06. 4:00 7 2 - 260° W
Fr, 14.06. 3:00 7 2 - 260° W
Fr, 14.06. 2:00 7 2 - 260° W
Ortszeit Untergrenze Bedeckung Gattung
total tief tief mittel hoch
Fr, 14.06. 2:00 - - - - - -
Do, 13.06. 20:00 1380 m 3/8 2/8 Cu Ac Ci
Do, 13.06. 14:00 840 m 5/8 3/8 Cu Ac -
Do, 13.06. 8:00 1200 m 6/8 2/8 Sc As -
Do, 13.06. 2:00 3300 m - 8/8 - - -
Mi, 12.06. 20:00 1800 m - 7/8 - - -
Mi, 12.06. 14:00 2700 m - 7/8 - - -
Mi, 12.06. 8:00 3000 m - 2/8 - - -
Ortszeit Bedeckungsgrad in Achtel und Wolkenuntergrenze
Fr, 14.06. 7:00 7(5100m)
Fr, 14.06. 6:00 7(5400m)
Fr, 14.06. 5:00 7(5700m)
Fr, 14.06. 4:00 1(6000m) 7(6900m)
Fr, 14.06. 3:00 6(6300m)
Fr, 14.06. 2:00 -
Ortszeit Luftdruck NN (hPa) Tendenz (hPa in 3 Std.)
Fr, 14.06. 2:00 1018 - 0,5
Do, 13.06. 20:00 1017 + 0,2
Do, 13.06. 14:00 1017 - 0,7
Do, 13.06. 8:00 1018 + 0,5
Do, 13.06. 2:00 1018 0,0
Mi, 12.06. 20:00 1016 0,0
Mi, 12.06. 14:00 1017 - 0,2
Mi, 12.06. 8:00 1018 + 0,6
Ortszeit Luftdruck NN (hPa) Tendenz (hPa in 3 Std.)
Fr, 14.06. 7:00 1016 - 0,6
Fr, 14.06. 6:00 1017 - 0,8
Fr, 14.06. 5:00 1017 - 0,8
Fr, 14.06. 4:00 1017 - 1,0
Fr, 14.06. 3:00 1018 - 0,7
Fr, 14.06. 2:00 1018 - 0,5
Ortszeit Schneehöhe (cm)
Fr, 14.06. 2:00 -
Do, 13.06. 20:00 -
Do, 13.06. 14:00 -
Do, 13.06. 8:00 -
Do, 13.06. 2:00 -
Mi, 12.06. 20:00 -
Mi, 12.06. 14:00 -
Mi, 12.06. 8:00 -
Ortszeit Schneehöhe (cm)
Fr, 14.06. 7:00 -
Fr, 14.06. 6:00 -
Fr, 14.06. 5:00 -
Fr, 14.06. 4:00 -
Fr, 14.06. 3:00 -
Fr, 14.06. 2:00 -
Link zu dieser Seite / Seite empfehlen

Das Wetter in ...